Time;durP1;ratioP1;P1;durP2;ratioP2;P2;SDS_P1;SDS_P2;PMS_P1;PMS_P2;Temp;Humidity;BMP_temperature;BMP_pressure;BME280_temperature;BME280_humidity;BME280_pressure;Samples;Min_cycle;Max_cycle;Signal;HPM_P1;HPM_P2
2024/02/21 00:00:51;;;;;;;22.97;9.97;;;10.40;99.90;;;;;;5116320;28;20248;-86
2024/02/21 00:03:20;;;;;;;18.83;9.80;;;10.40;99.90;;;;;;5098464;28;20202;-88
2024/02/21 00:05:46;;;;;;;17.90;9.23;;;10.40;99.90;;;;;;5116500;28;20250;-85
2024/02/21 00:08:11;;;;;;;19.83;10.37;;;10.40;99.90;;;;;;5098816;28;20278;-85
2024/02/21 00:10:37;;;;;;;19.97;10.20;;;10.30;99.90;;;;;;5098426;28;20692;-84
2024/02/21 00:13:03;;;;;;;20.13;9.57;;;10.20;99.90;;;;;;5116490;28;20171;-84
2024/02/21 00:15:28;;;;;;;20.70;9.87;;;10.30;99.90;;;;;;5098056;28;20182;-85
2024/02/21 00:17:54;;;;;;;18.13;9.13;;;10.20;99.90;;;;;;5098171;28;20266;-84
2024/02/21 00:20:20;;;;;;;17.03;8.93;;;10.10;99.90;;;;;;5098852;28;20198;-89
2024/02/21 00:22:46;;;;;;;20.70;10.13;;;10.10;99.90;;;;;;5098751;28;20179;-83
2024/02/21 00:25:11;;;;;;;20.83;10.00;;;10.20;99.90;;;;;;5097697;28;20196;-84
2024/02/21 00:27:38;;;;;;;19.03;9.17;;;10.00;99.90;;;;;;5098069;28;20185;-87
2024/02/21 00:30:05;;;;;;;12.43;8.27;;;10.10;99.90;;;;;;5097898;28;20171;-84
2024/02/21 00:32:32;;;;;;;21.27;8.80;;;9.90;99.90;;;;;;5098014;28;20193;-85
2024/02/21 00:34:57;;;;;;;15.60;8.33;;;9.90;99.90;;;;;;5097464;28;20166;-84
2024/02/21 00:37:23;;;;;;;20.77;8.47;;;10.10;99.90;;;;;;5097864;28;20204;-84
2024/02/21 00:39:49;;;;;;;15.80;9.30;;;10.20;99.90;;;;;;5097739;28;20199;-85
2024/02/21 00:42:14;;;;;;;18.40;9.23;;;10.20;99.90;;;;;;5097935;28;20589;-84
2024/02/21 00:44:40;;;;;;;18.17;8.57;;;10.10;99.90;;;;;;5097501;28;20604;-84
2024/02/21 00:47:06;;;;;;;17.23;8.40;;;10.20;99.90;;;;;;5097813;28;20186;-85
2024/02/21 00:49:31;;;;;;;18.23;8.90;;;10.10;99.90;;;;;;5097650;28;20182;-89
2024/02/21 00:51:57;;;;;;;19.40;8.67;;;10.10;99.90;;;;;;5115994;28;20622;-85
2024/02/21 00:54:23;;;;;;;14.70;8.73;;;10.10;99.90;;;;;;5115804;28;20178;-88
2024/02/21 00:56:48;;;;;;;15.77;8.90;;;10.10;99.90;;;;;;5097633;28;20524;-85
2024/02/21 00:59:14;;;;;;;16.43;8.47;;;10.30;99.90;;;;;;5097294;28;20228;-86
2024/02/21 01:01:42;;;;;;;16.07;8.73;;;10.20;99.90;;;;;;5096618;28;20202;-84
2024/02/21 01:04:09;;;;;;;18.17;8.60;;;10.20;99.90;;;;;;5098661;28;20201;-85
2024/02/21 01:06:34;;;;;;;13.30;7.80;;;10.20;99.90;;;;;;5098282;28;20263;-83
2024/02/21 01:09:00;;;;;;;14.63;8.03;;;10.10;99.90;;;;;;5096795;28;20222;-84
2024/02/21 01:11:27;;;;;;;16.33;8.30;;;10.00;99.90;;;;;;5096904;28;20213;-85
2024/02/21 01:13:53;;;;;;;18.27;8.70;;;9.90;99.90;;;;;;5097436;28;20171;-83
2024/02/21 01:16:18;;;;;;;18.03;7.93;;;10.00;99.90;;;;;;5096887;28;20266;-85
2024/02/21 01:18:44;;;;;;;17.10;8.50;;;10.00;99.90;;;;;;5115533;28;20638;-84
2024/02/21 01:21:10;;;;;;;17.03;8.63;;;10.00;99.90;;;;;;5097171;28;20224;-84
2024/02/21 01:23:36;;;;;;;17.70;9.07;;;9.90;99.90;;;;;;5097274;28;20175;-85
2024/02/21 01:26:03;;;;;;;13.83;8.37;;;10.10;99.90;;;;;;5097058;28;20182;-84
2024/02/21 01:28:30;;;;;;;16.37;9.33;;;9.90;99.90;;;;;;5097207;28;20212;-84
2024/02/21 01:30:56;;;;;;;17.70;9.40;;;9.80;99.90;;;;;;5096844;28;20537;-87
2024/02/21 01:33:22;;;;;;;16.23;9.00;;;9.80;99.90;;;;;;5096989;28;20175;-84
2024/02/21 01:35:49;;;;;;;17.10;9.73;;;9.90;99.90;;;;;;5096996;28;20170;-84
2024/02/21 01:38:14;;;;;;;18.73;10.50;;;9.90;99.90;;;;;;5096242;28;20171;-83
2024/02/21 01:40:40;;;;;;;18.50;9.63;;;9.90;99.90;;;;;;5097107;28;20608;-84
2024/02/21 01:43:19;;;;;;;22.00;9.50;;;9.90;99.90;;;;;;5096783;28;20618;-84
2024/02/21 01:45:48;;;;;;;18.00;10.03;;;9.70;99.90;;;;;;5114033;28;20221;-84
2024/02/21 01:48:14;;;;;;;21.37;9.90;;;9.60;99.90;;;;;;5096316;28;20195;-83
2024/02/21 01:50:40;;;;;;;18.37;10.43;;;9.70;99.90;;;;;;5096788;28;20170;-87
2024/02/21 01:53:07;;;;;;;16.87;10.47;;;9.70;99.90;;;;;;5114650;28;20768;-84
2024/02/21 01:55:33;;;;;;;20.63;11.03;;;9.70;99.90;;;;;;5096650;28;20200;-84
2024/02/21 01:57:59;;;;;;;17.17;10.10;;;9.70;99.90;;;;;;5096409;28;20556;-88
2024/02/21 02:00:25;;;;;;;27.03;11.37;;;9.60;99.90;;;;;;5096291;28;20238;-85
2024/02/21 02:02:50;;;;;;;20.93;11.23;;;9.70;99.90;;;;;;5096329;28;20647;-84
2024/02/21 02:05:18;;;;;;;22.07;10.10;;;9.70;99.90;;;;;;5096614;28;20176;-85
2024/02/21 02:07:44;;;;;;;17.67;10.43;;;9.80;99.90;;;;;;5096019;28;20544;-83
2024/02/21 02:10:10;;;;;;;22.53;11.50;;;9.80;99.90;;;;;;5096285;28;20185;-83
2024/02/21 02:12:36;;;;;;;20.93;10.50;;;9.70;99.90;;;;;;5096182;28;20661;-82
2024/02/21 02:15:06;;;;;;;18.33;10.37;;;9.80;99.90;;;;;;5096297;28;20281;-83
2024/02/21 02:17:32;;;;;;;23.23;10.50;;;9.70;99.90;;;;;;5114235;28;20167;-83
2024/02/21 02:19:58;;;;;;;17.17;9.37;;;9.80;99.90;;;;;;5095877;28;20187;-84
2024/02/21 02:22:29;;;;;;;19.30;10.03;;;9.80;99.90;;;;;;5095605;28;20218;-84
2024/02/21 02:24:55;;;;;;;16.50;9.57;;;9.80;99.90;;;;;;5095833;28;20246;-84
2024/02/21 02:27:22;;;;;;;19.87;9.87;;;9.80;99.90;;;;;;5095868;28;20676;-85
2024/02/21 02:29:48;;;;;;;16.67;9.90;;;9.80;99.90;;;;;;5114242;28;20166;-84
2024/02/21 02:32:14;;;;;;;21.70;9.83;;;9.80;99.90;;;;;;5095548;28;20167;-84
2024/02/21 02:34:40;;;;;;;18.97;10.53;;;9.80;99.90;;;;;;5095990;28;20175;-85
2024/02/21 02:37:05;;;;;;;16.90;10.20;;;9.90;99.90;;;;;;5095552;28;20623;-85
2024/02/21 02:39:31;;;;;;;20.63;9.97;;;9.90;99.90;;;;;;5095383;28;20206;-83
2024/02/21 02:41:56;;;;;;;22.53;11.20;;;10.00;99.90;;;;;;5095716;28;20229;-85
2024/02/21 02:44:22;;;;;;;18.43;9.57;;;9.90;99.90;;;;;;5113820;28;20167;-83
2024/02/21 02:46:48;;;;;;;19.60;9.70;;;9.90;99.90;;;;;;5113634;28;20755;-87
2024/02/21 02:49:13;;;;;;;18.03;9.70;;;9.90;99.90;;;;;;5095397;28;20170;-86
2024/02/21 02:51:43;;;;;;;20.83;9.77;;;9.90;99.90;;;;;;5095257;28;20612;-85
2024/02/21 02:54:09;;;;;;;21.67;10.03;;;10.00;99.90;;;;;;5095377;28;20174;-84
2024/02/21 02:56:35;;;;;;;20.07;10.60;;;10.00;99.90;;;;;;5095558;28;20604;-83
2024/02/21 02:59:01;;;;;;;21.43;11.03;;;9.90;99.90;;;;;;5095332;28;20195;-84
2024/02/21 03:01:27;;;;;;;15.47;9.10;;;9.90;99.90;;;;;;5094819;28;20221;-83
2024/02/21 03:03:53;;;;;;;22.30;10.67;;;9.70;99.90;;;;;;5095329;28;20166;-84
2024/02/21 03:06:20;;;;;;;18.73;10.40;;;9.70;99.90;;;;;;5078707;28;20256;-84
2024/02/21 03:08:46;;;;;;;19.47;10.10;;;9.60;99.90;;;;;;5095239;28;20210;-88
2024/02/21 03:11:12;;;;;;;18.87;10.17;;;9.80;99.90;;;;;;5095508;28;20174;-84
2024/02/21 03:13:37;;;;;;;21.33;10.50;;;9.80;99.90;;;;;;5095331;28;20616;-84
2024/02/21 03:16:03;;;;;;;19.50;11.23;;;9.60;99.90;;;;;;5095152;28;20183;-85
2024/02/21 03:18:29;;;;;;;19.17;10.43;;;9.60;99.90;;;;;;5095128;28;20630;-84
2024/02/21 03:20:54;;;;;;;21.00;10.23;;;9.60;99.90;;;;;;5113311;28;20210;-84
2024/02/21 03:23:20;;;;;;;19.27;10.67;;;9.70;99.90;;;;;;5094901;28;20171;-85
2024/02/21 03:25:46;;;;;;;13.47;9.30;;;9.70;99.90;;;;;;5095638;28;20291;-83
2024/02/21 03:28:12;;;;;;;19.50;10.80;;;9.80;99.90;;;;;;5114288;28;20533;-84
2024/02/21 03:30:38;;;;;;;20.87;10.80;;;9.70;99.90;;;;;;5093685;28;20175;-84
2024/02/21 03:33:03;;;;;;;18.97;11.20;;;9.60;99.90;;;;;;5095071;28;20170;-84
2024/02/21 03:35:29;;;;;;;19.50;10.60;;;9.60;99.90;;;;;;5098384;28;20635;-83
2024/02/21 03:37:55;;;;;;;20.53;11.13;;;9.60;99.90;;;;;;5098949;28;20646;-88
2024/02/21 03:40:21;;;;;;;18.43;10.10;;;9.60;99.90;;;;;;5099429;28;20178;-81
2024/02/21 03:42:46;;;;;;;22.03;11.40;;;9.60;99.90;;;;;;5100006;28;20648;-85
2024/02/21 03:45:12;;;;;;;18.20;10.90;;;9.70;99.90;;;;;;5098680;28;20593;-84
2024/02/21 03:47:38;;;;;;;18.73;10.53;;;9.60;99.90;;;;;;5098854;28;20577;-89
2024/02/21 03:50:04;;;;;;;20.33;10.47;;;9.60;99.90;;;;;;5097882;28;20175;-83
2024/02/21 03:52:30;;;;;;;21.00;11.50;;;9.60;99.90;;;;;;5116890;28;20204;-85
2024/02/21 03:54:56;;;;;;;19.13;9.80;;;9.50;99.90;;;;;;5098780;28;20413;-83
2024/02/21 03:57:21;;;;;;;18.23;10.93;;;9.50;99.90;;;;;;5098973;28;20258;-89
2024/02/21 03:59:51;;;;;;;18.00;10.63;;;9.60;99.90;;;;;;5098739;28;20199;-84
2024/02/21 04:02:17;;;;;;;23.30;11.20;;;9.60;99.90;;;;;;5116610;28;20210;-84
2024/02/21 04:04:46;;;;;;;22.20;11.17;;;9.60;99.90;;;;;;5098265;28;20178;-84
2024/02/21 04:07:12;;;;;;;21.17;12.10;;;9.70;99.90;;;;;;5098661;28;20175;-83
2024/02/21 04:09:38;;;;;;;17.83;10.97;;;9.60;99.90;;;;;;5098461;28;20179;-84
2024/02/21 04:12:04;;;;;;;20.07;11.20;;;9.70;99.90;;;;;;5097635;28;20175;-84
2024/02/21 04:14:30;;;;;;;17.57;10.63;;;9.60;99.90;;;;;;5098612;28;20182;-85
2024/02/21 04:16:55;;;;;;;19.93;10.40;;;9.90;99.90;;;;;;5098312;28;20178;-83
2024/02/21 04:19:21;;;;;;;22.20;11.17;;;9.80;99.90;;;;;;5097920;28;20195;-85
2024/02/21 04:21:47;;;;;;;19.37;10.07;;;9.80;99.90;;;;;;5098385;28;20670;-84
2024/02/21 04:24:12;;;;;;;18.33;9.87;;;9.80;99.90;;;;;;5098194;28;20189;-87
2024/02/21 04:26:38;;;;;;;17.53;10.10;;;9.90;99.90;;;;;;5098152;28;20178;-84
2024/02/21 04:29:04;;;;;;;18.47;9.50;;;9.80;99.90;;;;;;5098183;28;20164;-83
2024/02/21 04:31:31;;;;;;;19.50;10.17;;;9.80;99.90;;;;;;5098029;28;20197;-85
2024/02/21 04:33:57;;;;;;;14.73;9.43;;;9.80;99.90;;;;;;5097674;28;20641;-85
2024/02/21 04:36:23;;;;;;;18.60;9.57;;;9.70;99.90;;;;;;5097633;28;20183;-84
2024/02/21 04:38:50;;;;;;;16.00;9.23;;;9.80;99.90;;;;;;5098066;28;20167;-84
2024/02/21 04:41:15;;;;;;;20.50;9.97;;;9.70;99.90;;;;;;5097599;28;20199;-89
2024/02/21 04:43:41;;;;;;;16.63;9.33;;;9.80;99.90;;;;;;5097696;28;20588;-84
2024/02/21 04:46:07;;;;;;;12.87;9.90;;;9.60;99.90;;;;;;5095997;28;20224;-84
2024/02/21 04:48:32;;;;;;;19.97;10.17;;;9.80;99.90;;;;;;5097416;28;20547;-85
2024/02/21 04:50:58;;;;;;;15.47;9.70;;;9.70;99.90;;;;;;5097568;28;20171;-83
2024/02/21 04:53:24;;;;;;;19.20;8.87;;;9.70;99.90;;;;;;5097608;28;20548;-84
2024/02/21 04:55:49;;;;;;;15.43;9.57;;;9.60;99.90;;;;;;5097452;28;20166;-83
2024/02/21 04:58:15;;;;;;;19.03;9.83;;;9.70;99.90;;;;;;5097718;28;20220;-84
2024/02/21 05:00:41;;;;;;;16.23;9.73;;;9.70;99.90;;;;;;5115335;28;20205;-85
2024/02/21 05:03:07;;;;;;;14.83;9.03;;;9.70;99.90;;;;;;5097601;28;20171;-85
2024/02/21 05:05:32;;;;;;;16.47;8.93;;;9.60;99.90;;;;;;5097135;28;20262;-84
2024/02/21 05:07:58;;;;;;;17.47;10.20;;;9.60;99.90;;;;;;5097284;28;20213;-82
2024/02/21 05:10:23;;;;;;;20.83;9.60;;;9.60;99.90;;;;;;5115658;28;20173;-84
2024/02/21 05:12:49;;;;;;;13.87;9.23;;;9.60;99.90;;;;;;5097441;28;20583;-91
2024/02/21 05:15:15;;;;;;;17.03;9.00;;;9.60;99.90;;;;;;5115278;28;20171;-85
2024/02/21 05:17:42;;;;;;;16.37;9.57;;;9.60;99.90;;;;;;5115934;28;20249;-90
2024/02/21 05:20:08;;;;;;;13.80;8.70;;;9.60;99.90;;;;;;5097493;28;20627;-87
2024/02/21 05:22:34;;;;;;;13.67;9.13;;;9.70;99.90;;;;;;5097056;28;20231;-85
2024/02/21 05:24:59;;;;;;;15.47;9.00;;;9.70;99.90;;;;;;5097199;28;20176;-83
2024/02/21 05:27:25;;;;;;;16.53;9.23;;;9.70;99.90;;;;;;5115233;28;20167;-83
2024/02/21 05:29:51;;;;;;;18.87;9.37;;;9.70;99.90;;;;;;5096486;28;20175;-84
2024/02/21 05:32:16;;;;;;;13.90;9.57;;;9.80;99.90;;;;;;5096400;28;20178;-84
2024/02/21 05:34:42;;;;;;;16.80;8.47;;;9.70;99.90;;;;;;5097424;28;20266;-84
2024/02/21 05:37:08;;;;;;;14.63;7.87;;;9.70;99.90;;;;;;5097491;28;20171;-84
2024/02/21 05:39:34;;;;;;;14.03;8.50;;;9.70;99.90;;;;;;5101983;28;20547;-83
2024/02/21 05:41:59;;;;;;;16.63;8.60;;;9.70;99.90;;;;;;5114732;28;20210;-85
2024/02/21 05:44:26;;;;;;;10.53;7.47;;;9.70;99.90;;;;;;5114464;28;20171;-84
2024/02/21 05:46:52;;;;;;;15.13;7.67;;;9.60;99.90;;;;;;5115021;28;20171;-84
2024/02/21 05:49:18;;;;;;;12.93;8.83;;;9.60;99.90;;;;;;5096484;28;20648;-85
2024/02/21 05:51:43;;;;;;;16.03;8.70;;;9.60;99.90;;;;;;5114707;28;20639;-84
2024/02/21 05:54:09;;;;;;;17.20;9.07;;;9.70;99.90;;;;;;5115125;28;20258;-84
2024/02/21 05:56:34;;;;;;;14.27;8.97;;;9.80;99.90;;;;;;5095926;28;20175;-84
2024/02/21 05:59:00;;;;;;;10.90;7.10;;;9.70;99.90;;;;;;5114209;28;20548;-82
2024/02/21 06:01:26;;;;;;;11.47;7.40;;;9.80;99.90;;;;;;5114237;28;20675;-86
2024/02/21 06:03:52;;;;;;;11.67;7.40;;;9.80;99.90;;;;;;5096294;28;20167;-84
2024/02/21 06:06:17;;;;;;;10.67;6.67;;;9.70;99.90;;;;;;5096132;28;20166;-83
2024/02/21 06:08:43;;;;;;;13.47;7.50;;;9.60;99.90;;;;;;5095703;28;20262;-83
2024/02/21 06:11:09;;;;;;;10.83;7.30;;;9.60;99.90;;;;;;5095945;28;20175;-84
2024/02/21 06:13:39;;;;;;;12.23;6.80;;;9.60;99.90;;;;;;5095741;28;20603;-85
2024/02/21 06:16:05;;;;;;;9.47;7.00;;;9.70;99.90;;;;;;5095910;28;20178;-84
2024/02/21 06:18:31;;;;;;;11.17;7.20;;;9.60;99.90;;;;;;5095493;28;20249;-84
2024/02/21 06:20:57;;;;;;;9.70;6.20;;;9.70;99.90;;;;;;5096256;28;20290;-86
2024/02/21 06:23:22;;;;;;;10.27;6.47;;;9.70;99.90;;;;;;5096406;28;20185;-85
2024/02/21 06:25:48;;;;;;;8.87;6.57;;;9.70;99.90;;;;;;5096021;28;20167;-84
2024/02/21 06:28:14;;;;;;;10.07;6.07;;;9.70;99.90;;;;;;5095041;28;20262;-83
2024/02/21 06:30:40;;;;;;;9.30;6.77;;;9.60;99.90;;;;;;5095564;28;20179;-84
2024/02/21 06:33:07;;;;;;;13.43;8.27;;;9.60;99.90;;;;;;5095634;28;20619;-85
2024/02/21 06:35:33;;;;;;;11.27;8.20;;;9.80;99.90;;;;;;5095924;28;20205;-85
2024/02/21 06:37:59;;;;;;;14.00;8.37;;;9.80;99.90;;;;;;5113648;28;20265;-85
2024/02/21 06:40:25;;;;;;;13.40;9.40;;;9.90;99.90;;;;;;5095077;28;20261;-89
2024/02/21 06:42:51;;;;;;;12.27;9.10;;;9.80;99.90;;;;;;5113131;28;20175;-85
2024/02/21 06:45:17;;;;;;;17.83;10.47;;;9.80;99.90;;;;;;5095341;28;20175;-83
2024/02/21 06:47:43;;;;;;;16.57;10.27;;;9.80;99.90;;;;;;5094801;28;20558;-84
2024/02/21 06:50:09;;;;;;;13.57;10.40;;;9.70;99.90;;;;;;5113384;28;20272;-85
2024/02/21 06:52:36;;;;;;;16.47;11.17;;;9.80;99.90;;;;;;5094723;28;20175;-84
2024/02/21 06:55:02;;;;;;;15.77;11.87;;;9.80;99.90;;;;;;5094814;28;20518;-84
2024/02/21 06:57:29;;;;;;;14.20;10.70;;;9.70;99.90;;;;;;5113158;28;20166;-86
2024/02/21 06:59:55;;;;;;;22.10;12.07;;;9.90;99.90;;;;;;5094298;28;20281;-83
2024/02/21 07:02:21;;;;;;;18.10;11.47;;;9.80;99.90;;;;;;5094912;28;20304;-88
2024/02/21 07:04:47;;;;;;;13.40;10.57;;;9.90;99.90;;;;;;5113599;28;20274;-87
2024/02/21 07:07:13;;;;;;;16.53;12.27;;;9.60;99.90;;;;;;5094573;28;20254;-84
2024/02/21 07:09:39;;;;;;;21.63;12.40;;;9.60;99.90;;;;;;5093439;28;20635;-84
2024/02/21 07:12:05;;;;;;;15.80;12.73;;;9.60;99.90;;;;;;5094320;28;20175;-84
2024/02/21 07:14:33;;;;;;;21.97;15.17;;;9.50;99.90;;;;;;5094765;28;20209;-81
2024/02/21 07:16:58;;;;;;;19.37;15.07;;;9.50;99.90;;;;;;5090409;28;20295;-86
2024/02/21 07:19:24;;;;;;;21.73;16.43;;;9.50;99.90;;;;;;5073339;28;20175;-85
2024/02/21 07:21:50;;;;;;;18.17;14.03;;;9.50;99.90;;;;;;5071056;28;20218;-88
2024/02/21 07:24:15;;;;;;;17.90;13.90;;;9.50;99.90;;;;;;5072905;28;20171;-84
2024/02/21 07:26:43;;;;;;;17.43;12.90;;;9.40;99.90;;;;;;5074466;28;20250;-85
2024/02/21 07:29:08;;;;;;;17.33;12.67;;;9.50;99.90;;;;;;5092496;28;20163;-86
2024/02/21 07:31:43;;;;;;;14.30;12.03;;;9.40;99.90;;;;;;5074954;28;20191;-87
2024/02/21 07:34:09;;;;;;;21.17;13.57;;;9.40;99.90;;;;;;5073796;28;20623;-85
2024/02/21 07:36:37;;;;;;;17.83;11.97;;;9.40;99.90;;;;;;5075075;28;20233;-84
2024/02/21 07:39:04;;;;;;;17.17;11.80;;;9.30;99.90;;;;;;5074427;28;20183;-86
2024/02/21 07:41:30;;;;;;;16.57;11.10;;;9.40;99.90;;;;;;5074129;28;20207;-84
2024/02/21 07:43:56;;;;;;;15.63;11.40;;;9.30;99.90;;;;;;5092646;28;20628;-82
2024/02/21 07:46:21;;;;;;;14.40;10.63;;;9.20;99.90;;;;;;5077877;28;20171;-84
2024/02/21 07:48:47;;;;;;;13.23;10.03;;;9.40;99.90;;;;;;5078236;28;20175;-83
2024/02/21 07:51:13;;;;;;;15.97;10.37;;;9.20;99.90;;;;;;5078545;28;20179;-84
2024/02/21 07:53:44;;;;;;;14.90;9.53;;;9.20;99.90;;;;;;5077970;28;20174;-84
2024/02/21 07:56:10;;;;;;;14.60;9.90;;;9.30;99.90;;;;;;5109231;28;20180;-84
2024/02/21 07:58:36;;;;;;;13.20;8.97;;;9.40;99.90;;;;;;5074105;28;20188;-85
2024/02/21 08:01:02;;;;;;;14.20;9.20;;;9.40;99.90;;;;;;5107753;28;20218;-83
2024/02/21 08:03:27;;;;;;;13.57;8.30;;;9.40;99.90;;;;;;5108080;28;20332;-84
2024/02/21 08:05:53;;;;;;;14.47;8.60;;;9.40;99.90;;;;;;5107639;28;20330;-85
2024/02/21 08:08:20;;;;;;;13.17;8.30;;;9.60;99.90;;;;;;5108072;28;20176;-83
2024/02/21 08:10:46;;;;;;;12.53;7.33;;;9.50;99.90;;;;;;5107320;28;20601;-83
2024/02/21 08:13:12;;;;;;;11.27;7.30;;;9.50;99.90;;;;;;5107851;28;20176;-83
2024/02/21 08:15:39;;;;;;;12.43;6.90;;;9.50;99.90;;;;;;5107802;28;20182;-83
2024/02/21 08:18:05;;;;;;;8.53;5.70;;;9.60;99.90;;;;;;5107871;28;20222;-83
2024/02/21 08:20:31;;;;;;;13.50;6.97;;;9.50;99.90;;;;;;5093612;28;20271;-83
2024/02/21 08:22:56;;;;;;;9.50;6.17;;;9.50;99.90;;;;;;5111571;28;20222;-84
2024/02/21 08:25:22;;;;;;;10.83;6.30;;;9.50;99.90;;;;;;5111490;28;20179;-84
2024/02/21 08:27:48;;;;;;;12.73;6.67;;;9.50;99.90;;;;;;5111740;28;20176;-84
2024/02/21 08:30:14;;;;;;;12.27;6.37;;;9.70;99.90;;;;;;5111566;28;20185;-85
2024/02/21 08:32:40;;;;;;;11.33;6.40;;;9.70;99.90;;;;;;5095987;28;20241;-82
2024/02/21 08:35:06;;;;;;;11.37;6.50;;;9.70;99.90;;;;;;5112719;28;20175;-84
2024/02/21 08:37:31;;;;;;;11.63;5.53;;;9.80;99.90;;;;;;5112306;28;20614;-83
2024/02/21 08:39:57;;;;;;;11.87;5.33;;;9.80;99.90;;;;;;5111274;28;20267;-84
2024/02/21 08:42:23;;;;;;;10.30;5.07;;;9.80;99.90;;;;;;5112022;28;20207;-83
2024/02/21 08:44:49;;;;;;;11.97;5.57;;;10.00;99.90;;;;;;5113018;28;20176;-83
2024/02/21 08:47:15;;;;;;;10.23;5.00;;;9.90;99.90;;;;;;5111113;28;20183;-83
2024/02/21 08:49:40;;;;;;;10.80;5.40;;;9.80;99.90;;;;;;5095768;28;20183;-83
2024/02/21 08:52:06;;;;;;;8.67;5.03;;;9.80;99.90;;;;;;5110388;28;20678;-85
2024/02/21 08:54:32;;;;;;;10.70;4.93;;;9.90;99.90;;;;;;5110756;28;20261;-85
2024/02/21 08:56:58;;;;;;;10.70;5.50;;;10.00;99.90;;;;;;5077002;28;20222;-84
2024/02/21 08:59:24;;;;;;;8.00;4.60;;;10.00;99.90;;;;;;5094780;28;20187;-85
2024/02/21 09:01:52;;;;;;;7.60;4.70;;;10.00;99.90;;;;;;5109970;28;20705;-84
2024/02/21 09:04:17;;;;;;;8.40;4.67;;;10.10;99.90;;;;;;5076871;28;20175;-83
2024/02/21 09:06:46;;;;;;;9.13;5.20;;;10.10;99.90;;;;;;5110473;28;20245;-84
2024/02/21 09:09:12;;;;;;;11.77;4.63;;;10.10;99.90;;;;;;5110107;28;20221;-83
2024/02/21 09:11:38;;;;;;;12.20;5.17;;;10.10;99.90;;;;;;5110423;28;20230;-84
2024/02/21 09:14:03;;;;;;;7.07;4.43;;;10.20;99.90;;;;;;5110123;28;20171;-84
2024/02/21 09:16:33;;;;;;;7.03;4.67;;;10.20;99.90;;;;;;5109735;28;20238;-84
2024/02/21 09:18:59;;;;;;;7.73;4.20;;;10.10;99.90;;;;;;5075950;28;20187;-85
2024/02/21 09:21:25;;;;;;;11.70;4.67;;;10.10;99.90;;;;;;5109707;28;20203;-85
2024/02/21 09:23:50;;;;;;;7.30;4.37;;;10.10;99.90;;;;;;5109724;28;20531;-84
2024/02/21 09:26:16;;;;;;;10.77;5.13;;;10.30;99.90;;;;;;5076134;28;20246;-85
2024/02/21 09:28:45;;;;;;;7.33;4.57;;;10.20;99.90;;;;;;5110101;28;20332;-85
2024/02/21 09:31:11;;;;;;;9.07;4.83;;;10.20;99.90;;;;;;5109479;28;20198;-84
2024/02/21 09:33:37;;;;;;;11.83;5.07;;;10.30;99.90;;;;;;5110121;28;20631;-87
2024/02/21 09:36:05;;;;;;;11.63;5.10;;;10.30;99.90;;;;;;5110180;28;20175;-83
2024/02/21 09:38:31;;;;;;;10.80;4.80;;;10.20;99.90;;;;;;5075746;28;20198;-84
2024/02/21 09:41:04;;;;;;;6.13;4.47;;;10.30;99.90;;;;;;5076077;28;20209;-85
2024/02/21 09:43:30;;;;;;;5.27;3.83;;;10.40;99.90;;;;;;5076095;28;20723;-85
2024/02/21 09:45:58;;;;;;;9.20;4.23;;;10.40;99.90;;;;;;5082415;28;20193;-84
2024/02/21 09:48:32;;;;;;;7.60;4.27;;;10.50;99.90;;;;;;5095860;28;20202;-83
2024/02/21 09:50:59;;;;;;;6.50;4.73;;;10.50;99.90;;;;;;5095836;28;20172;-84
2024/02/21 09:53:26;;;;;;;9.33;4.57;;;10.50;99.90;;;;;;5096014;28;20185;-83
2024/02/21 09:55:52;;;;;;;8.93;4.37;;;10.70;99.40;;;;;;5096054;28;20167;-83
2024/02/21 09:58:18;;;;;;;8.73;4.20;;;10.70;99.20;;;;;;5095961;28;20215;-84
2024/02/21 10:00:44;;;;;;;6.57;4.00;;;10.60;98.30;;;;;;5095460;28;20237;-85
2024/02/21 10:03:10;;;;;;;8.43;4.13;;;10.70;98.60;;;;;;5096004;28;20274;-91
2024/02/21 10:05:36;;;;;;;7.93;3.90;;;10.60;98.10;;;;;;5095460;28;20178;-84
2024/02/21 10:08:02;;;;;;;7.03;3.87;;;10.60;97.30;;;;;;5095573;28;20175;-86
2024/02/21 10:10:29;;;;;;;11.80;4.47;;;10.60;97.80;;;;;;5095784;28;20176;-85
2024/02/21 10:12:57;;;;;;;6.07;3.43;;;10.60;97.30;;;;;;5095806;28;20167;-85
2024/02/21 10:15:24;;;;;;;8.50;3.93;;;10.70;95.60;;;;;;5095556;28;20209;-85
2024/02/21 10:17:58;;;;;;;9.63;4.43;;;10.60;96.10;;;;;;5095638;28;20186;-84
2024/02/21 10:20:24;;;;;;;7.47;4.63;;;10.80;95.90;;;;;;5095812;28;20216;-84
2024/02/21 10:23:07;;;;;;;11.70;4.37;;;10.70;94.50;;;;;;5096165;28;20269;-84
2024/02/21 10:25:34;;;;;;;8.13;4.07;;;10.70;93.70;;;;;;5096275;28;20170;-84
2024/02/21 10:27:59;;;;;;;7.87;4.20;;;10.80;93.40;;;;;;5098333;28;20258;-82
2024/02/21 10:30:25;;;;;;;10.63;4.50;;;10.90;93.10;;;;;;5096823;28;20172;-84
2024/02/21 10:32:54;;;;;;;9.77;4.97;;;10.80;92.50;;;;;;5095507;28;20650;-84
2024/02/21 10:35:31;;;;;;;11.43;4.47;;;10.90;92.80;;;;;;5095088;28;20268;-86
2024/02/21 10:37:57;;;;;;;10.23;4.20;;;10.80;92.30;;;;;;5113611;28;20175;-85
2024/02/21 10:40:30;;;;;;;9.20;4.50;;;10.90;92.60;;;;;;5094858;28;20170;-85
2024/02/21 10:43:03;;;;;;;10.30;4.63;;;10.80;92.10;;;;;;5095211;28;20171;-89
2024/02/21 10:45:36;;;;;;;11.07;4.70;;;10.80;91.30;;;;;;5094311;28;20552;-84
2024/02/21 10:48:11;;;;;;;7.93;4.37;;;10.80;91.60;;;;;;5095770;28;20186;-88
2024/02/21 10:50:57;;;;;;;11.00;4.23;;;10.80;92.10;;;;;;5095771;28;20174;-89
2024/02/21 10:53:26;;;;;;;9.03;4.10;;;10.80;90.30;;;;;;5094887;28;20206;-86
2024/02/21 10:56:06;;;;;;;7.83;3.93;;;10.90;90.00;;;;;;5096290;28;20178;-88
2024/02/21 10:58:33;;;;;;;9.33;4.83;;;11.00;90.20;;;;;;5095601;28;20584;-91
2024/02/21 11:00:59;;;;;;;12.07;4.20;;;11.00;90.20;;;;;;5095203;28;20211;-90
2024/02/21 11:03:24;;;;;;;8.30;4.03;;;10.90;89.20;;;;;;5094945;28;20637;-85
2024/02/21 11:05:51;;;;;;;10.07;3.60;;;10.90;87.40;;;;;;5095856;28;20175;-90
2024/02/21 11:08:17;;;;;;;10.47;4.80;;;10.90;86.30;;;;;;5096587;28;20262;-87
2024/02/21 11:10:46;;;;;;;8.50;3.80;;;11.00;86.60;;;;;;5095867;28;20212;-85
2024/02/21 11:13:12;;;;;;;7.43;3.90;;;11.00;85.50;;;;;;5113902;28;20540;-88
2024/02/21 11:15:38;;;;;;;9.13;4.03;;;11.00;85.70;;;;;;5095554;28;20182;-86
2024/02/21 11:18:04;;;;;;;8.83;4.00;;;10.90;86.50;;;;;;5094546;28;20219;-88
2024/02/21 11:20:37;;;;;;;10.27;3.87;;;10.90;86.50;;;;;;5095422;28;20171;-88
2024/02/21 11:23:03;;;;;;;7.17;3.87;;;10.80;87.50;;;;;;5113617;28;20170;-86
2024/02/21 11:25:31;;;;;;;10.67;4.37;;;10.80;89.90;;;;;;5095962;28;20244;-86
2024/02/21 11:28:04;;;;;;;9.57;4.20;;;10.90;89.80;;;;;;5096460;28;20256;-89
2024/02/21 11:30:37;;;;;;;7.33;3.87;;;10.90;88.20;;;;;;5095419;28;20171;-87
2024/02/21 11:33:05;;;;;;;8.27;4.40;;;10.80;90.50;;;;;;5096986;28;20240;-89
2024/02/21 11:35:35;;;;;;;9.27;4.33;;;10.80;91.30;;;;;;5096845;28;20175;-84
2024/02/21 11:38:16;;;;;;;6.60;4.03;;;10.80;91.70;;;;;;5096088;28;20202;-87
2024/02/21 11:40:46;;;;;;;13.50;3.90;;;10.90;92.00;;;;;;5114120;28;20171;-86
2024/02/21 11:43:12;;;;;;;9.23;4.33;;;10.90;92.20;;;;;;5094803;28;20217;-84
2024/02/21 11:45:39;;;;;;;10.53;3.90;;;10.90;91.00;;;;;;5095360;28;20214;-91
2024/02/21 11:48:06;;;;;;;9.17;4.27;;;10.90;90.20;;;;;;5096142;28;20294;-86
2024/02/21 11:50:32;;;;;;;7.90;4.20;;;11.00;89.30;;;;;;5095689;28;20220;-90
2024/02/21 11:52:58;;;;;;;10.60;4.17;;;11.10;85.80;;;;;;5095726;28;20221;-89
2024/02/21 11:55:24;;;;;;;8.43;4.20;;;11.00;85.00;;;;;;5098257;28;20175;-88
2024/02/21 11:57:50;;;;;;;8.93;3.90;;;10.90;87.00;;;;;;5101735;28;20178;-88
2024/02/21 12:00:20;;;;;;;9.33;4.07;;;10.70;89.20;;;;;;5118657;28;20191;-87
2024/02/21 12:02:46;;;;;;;10.20;4.17;;;10.80;91.30;;;;;;5100493;28;20289;-91
2024/02/21 12:05:12;;;;;;;7.13;4.13;;;10.80;90.90;;;;;;5100841;28;20250;-89
2024/02/21 12:07:41;;;;;;;12.73;4.33;;;11.00;90.90;;;;;;5118877;28;20541;-91
2024/02/21 12:10:13;;;;;;;9.87;4.90;;;10.90;91.00;;;;;;5100023;28;20173;-90
2024/02/21 12:12:39;;;;;;;8.20;3.57;;;10.80;91.60;;;;;;5099302;28;20174;-86
2024/02/21 12:15:06;;;;;;;10.03;4.30;;;10.70;92.40;;;;;;5099753;28;20171;-88
2024/02/21 12:17:39;;;;;;;8.23;4.00;;;10.70;92.10;;;;;;5099921;28;20167;-90
2024/02/21 12:20:05;;;;;;;8.07;4.13;;;10.80;91.70;;;;;;5099924;28;20179;-91
2024/02/21 12:22:34;;;;;;;7.30;4.00;;;10.80;92.10;;;;;;5099622;28;20234;-88
2024/02/21 12:25:02;;;;;;;13.67;4.50;;;10.90;92.20;;;;;;5085865;28;20619;-90
2024/02/21 12:27:28;;;;;;;10.17;4.73;;;10.80;93.10;;;;;;5091131;28;20261;-89
2024/02/21 12:29:54;;;;;;;7.37;3.93;;;10.90;93.60;;;;;;5117335;28;20189;-86
2024/02/21 12:32:20;;;;;;;10.07;4.67;;;10.80;93.50;;;;;;5101763;28;20190;-87
2024/02/21 12:34:45;;;;;;;13.23;4.53;;;10.80;93.90;;;;;;5097175;28;20198;-89
2024/02/21 12:37:15;;;;;;;9.53;4.63;;;10.80;93.70;;;;;;5097238;28;20185;-92
2024/02/21 12:39:41;;;;;;;10.07;4.77;;;10.80;94.20;;;;;;5112189;28;20224;-85